createdAt,value
2023-06-24T00:00:54.682Z,83.66
2023-06-24T00:06:00.889Z,83.30
2023-06-24T00:11:30.996Z,83.63
2023-06-24T00:16:40.470Z,83.70
2023-06-24T00:21:46.642Z,83.89
2023-06-24T00:26:55.629Z,84.04
2023-06-24T00:31:59.391Z,84.21
2023-06-24T00:37:13.021Z,84.46
2023-06-24T00:42:15.406Z,84.69
2023-06-24T00:47:21.494Z,84.46
2023-06-24T00:52:30.394Z,84.24
2023-06-24T00:57:47.268Z,84.55
2023-06-24T01:15:39.828Z,82.55
2023-06-24T01:21:05.102Z,82.48
2023-06-24T01:26:47.101Z,82.40
2023-06-24T01:32:14.577Z,82.84
2023-06-24T01:37:43.958Z,83.30
2023-06-24T01:42:51.300Z,83.37
2023-06-24T01:48:14.118Z,84.37
2023-06-24T01:53:24.378Z,84.04
2023-06-24T01:58:38.248Z,83.53
2023-06-24T02:03:46.428Z,83.13
2023-06-24T02:09:02.164Z,83.14
2023-06-24T02:14:11.315Z,82.64
2023-06-24T02:19:22.664Z,82.22
2023-06-24T02:24:52.200Z,82.25
2023-06-24T02:30:00.177Z,82.07
2023-06-24T02:35:04.598Z,81.93
2023-06-24T02:40:11.798Z,82.12
2023-06-24T02:45:20.314Z,82.12
2023-06-24T02:50:31.497Z,82.59
2023-06-24T02:55:43.410Z,82.82
2023-06-24T03:00:53.286Z,82.67
2023-06-24T03:06:26.198Z,82.66
2023-06-24T03:11:48.538Z,82.51
2023-06-24T03:16:58.551Z,83.14
2023-06-24T03:22:09.030Z,82.69
2023-06-24T03:27:17.683Z,83.00
2023-06-24T03:32:20.920Z,82.58
2023-06-24T03:37:31.478Z,82.12
2023-06-24T03:42:37.229Z,82.18
2023-06-24T03:47:42.122Z,82.27
2023-06-24T03:52:48.343Z,82.20
2023-06-24T03:57:58.437Z,83.46
2023-06-24T04:09:25.046Z,85.77
2023-06-24T04:14:38.337Z,86.29
2023-06-24T04:19:47.766Z,86.82
2023-06-24T04:24:52.430Z,87.03
2023-06-24T04:29:58.815Z,87.38
2023-06-24T04:40:21.271Z,86.57
2023-06-24T04:45:29.322Z,85.31
2023-06-24T04:50:34.378Z,83.34
2023-06-24T04:55:47.916Z,81.91
2023-06-24T05:00:56.541Z,81.33
2023-06-24T05:06:02.013Z,80.86
2023-06-24T05:11:08.802Z,80.02
2023-06-24T05:16:18.621Z,80.01
2023-06-24T05:21:25.516Z,80.04
2023-06-24T05:26:31.948Z,79.97
2023-06-24T05:37:14.234Z,80.38
2023-06-24T05:47:52.324Z,79.65
2023-06-24T05:53:02.790Z,80.00
2023-06-24T05:58:40.862Z,79.60
2023-06-24T06:03:54.840Z,79.18
2023-06-24T06:09:01.451Z,78.68
2023-06-24T06:14:16.032Z,78.33
2023-06-24T06:19:25.883Z,78.02
2023-06-24T06:24:31.399Z,77.70
2023-06-24T06:35:20.718Z,77.09
2023-06-24T06:45:45.560Z,77.83
2023-06-24T06:50:54.691Z,78.50
2023-06-24T06:55:59.240Z,78.99
2023-06-24T07:01:31.326Z,79.64
2023-06-24T07:06:40.546Z,79.29
2023-06-24T07:11:54.290Z,79.05
2023-06-24T07:17:04.557Z,79.16
2023-06-24T07:22:11.791Z,78.70
2023-06-24T07:27:23.619Z,78.95
2023-06-24T07:32:32.378Z,77.94
2023-06-24T07:37:47.932Z,80.52
2023-06-24T07:42:56.516Z,80.35
2023-06-24T07:48:02.555Z,80.67
2023-06-24T07:53:11.726Z,81.30
2023-06-24T07:58:28.510Z,82.87
2023-06-24T08:03:36.219Z,84.25
2023-06-24T08:08:50.718Z,84.88
2023-06-24T08:14:06.708Z,84.62
2023-06-24T08:19:12.471Z,83.27
2023-06-24T08:24:27.007Z,83.05
2023-06-24T08:29:30.448Z,81.57
2023-06-24T08:34:37.744Z,81.56
2023-06-24T08:40:15.572Z,81.50
2023-06-24T08:45:19.956Z,81.96
2023-06-24T08:50:32.708Z,82.17
2023-06-24T08:55:54.855Z,83.69
2023-06-24T09:01:04.141Z,82.03
2023-06-24T09:06:07.800Z,82.18
2023-06-24T09:11:27.318Z,81.58
2023-06-24T09:16:33.111Z,80.96
2023-06-24T09:27:04.999Z,79.85
2023-06-24T09:32:10.648Z,78.77
2023-06-24T09:37:36.212Z,77.28
2023-06-24T09:43:26.131Z,74.83
2023-06-24T09:48:28.784Z,74.34
2023-06-24T09:53:39.685Z,74.31
2023-06-24T09:58:59.659Z,72.62
2023-06-24T10:09:32.625Z,71.60
2023-06-24T10:20:07.528Z,70.46
2023-06-24T10:30:36.576Z,70.48
2023-06-24T10:36:03.175Z,69.94
2023-06-24T10:41:45.088Z,68.22
2023-06-24T10:47:02.500Z,68.16
2023-06-24T10:52:13.585Z,68.55
2023-06-24T10:57:44.827Z,68.52
2023-06-24T11:02:53.651Z,68.39
2023-06-24T11:08:00.915Z,67.85
2023-06-24T11:13:13.370Z,66.49
2023-06-24T11:18:22.953Z,66.71
2023-06-24T11:23:28.066Z,66.85
2023-06-24T11:34:20.910Z,65.52
2023-06-24T11:39:28.122Z,64.79
2023-06-24T11:44:34.368Z,64.35
2023-06-24T11:50:45.648Z,63.12
2023-06-24T11:56:05.112Z,64.26
2023-06-24T12:01:39.898Z,63.13
2023-06-24T12:07:12.704Z,63.67
2023-06-24T12:12:25.202Z,64.21
2023-06-24T12:17:38.657Z,63.81
2023-06-24T12:22:56.040Z,63.13
2023-06-24T12:28:02.655Z,64.26
2023-06-24T12:39:02.764Z,63.19
2023-06-24T12:44:09.999Z,63.00
2023-06-24T12:49:17.563Z,61.99
2023-06-24T12:54:36.680Z,62.37
2023-06-24T12:59:47.691Z,63.20
2023-06-24T13:04:57.041Z,64.10
2023-06-24T13:10:05.093Z,64.70
2023-06-24T13:20:28.622Z,64.40
2023-06-24T13:25:49.478Z,63.16
2023-06-24T13:31:46.339Z,61.47
2023-06-24T13:36:58.773Z,61.58
2023-06-24T13:42:03.548Z,61.96
2023-06-24T13:47:44.867Z,60.32
2023-06-24T13:58:47.731Z,59.06
2023-06-24T14:03:56.975Z,61.02
2023-06-24T14:14:18.136Z,61.77
2023-06-24T14:19:31.967Z,59.89
2023-06-24T14:24:45.139Z,59.95
2023-06-24T14:30:03.319Z,56.54
2023-06-24T14:35:12.149Z,60.02
2023-06-24T14:40:41.348Z,58.11
2023-06-24T14:45:48.134Z,57.14
2023-06-24T14:50:52.363Z,57.97
2023-06-24T14:56:00.744Z,56.06
2023-06-24T15:01:06.698Z,55.37
2023-06-24T15:06:12.500Z,53.60
2023-06-24T15:16:48.174Z,54.56
2023-06-24T15:21:55.494Z,54.61
2023-06-24T15:27:03.325Z,53.71
2023-06-24T15:32:09.396Z,54.54
2023-06-24T15:37:16.143Z,54.83
2023-06-24T15:42:21.882Z,54.56
2023-06-24T15:47:26.716Z,53.45
2023-06-24T15:52:34.548Z,56.69
2023-06-24T15:57:48.169Z,59.58
2023-06-24T16:02:58.817Z,62.42
2023-06-24T16:08:07.903Z,63.54
2023-06-24T16:13:15.070Z,66.14
2023-06-24T16:18:32.236Z,65.66
2023-06-24T16:23:38.775Z,66.30
2023-06-24T16:28:54.122Z,67.94
2023-06-24T16:33:57.001Z,69.65
2023-06-24T16:39:05.526Z,70.99
2023-06-24T16:44:11.404Z,70.56
2023-06-24T16:49:13.538Z,71.67
2023-06-24T16:54:24.966Z,71.47
2023-06-24T16:59:38.792Z,72.53
2023-06-24T17:04:43.521Z,72.47
2023-06-24T17:09:49.042Z,72.99
2023-06-24T17:14:57.547Z,73.11
2023-06-24T17:20:10.683Z,74.29
2023-06-24T17:25:18.348Z,74.40
2023-06-24T17:30:26.056Z,74.64
2023-06-24T17:35:32.765Z,74.54
2023-06-24T17:40:48.349Z,74.64
2023-06-24T17:45:58.636Z,74.82
2023-06-24T17:51:03.319Z,74.70
2023-06-24T17:56:06.225Z,74.72
2023-06-24T18:01:16.825Z,75.22
2023-06-24T18:06:24.190Z,75.32
2023-06-24T18:11:29.825Z,75.21
2023-06-24T18:16:40.031Z,75.13
2023-06-24T18:21:46.441Z,75.21
2023-06-24T18:26:56.677Z,75.14
2023-06-24T18:32:09.194Z,75.57
2023-06-24T18:37:17.883Z,75.52
2023-06-24T18:42:26.177Z,75.67
2023-06-24T18:47:35.856Z,75.78
2023-06-24T18:52:42.564Z,75.61
2023-06-24T18:57:51.449Z,76.28
2023-06-24T19:03:00.770Z,76.22
2023-06-24T19:08:08.413Z,76.73
2023-06-24T19:13:13.661Z,76.96
2023-06-24T19:18:16.473Z,77.01
2023-06-24T19:23:27.366Z,77.36
2023-06-24T19:28:38.190Z,78.44
2023-06-24T19:33:50.524Z,78.01
2023-06-24T19:38:58.719Z,78.43
2023-06-24T19:44:08.633Z,80.03
2023-06-24T19:49:15.190Z,79.65
2023-06-24T19:54:27.886Z,80.44
2023-06-24T19:59:37.881Z,80.20
2023-06-24T20:06:57.953Z,80.22
2023-06-24T20:18:40.467Z,80.27
2023-06-24T20:23:54.693Z,80.40
2023-06-24T20:29:03.631Z,81.46
2023-06-24T20:34:06.787Z,81.77
2023-06-24T20:39:18.353Z,81.98
2023-06-24T20:44:25.667Z,81.75
2023-06-24T20:49:36.696Z,82.31
2023-06-24T20:54:41.835Z,82.22
2023-06-24T20:59:45.696Z,82.22
2023-06-24T21:04:52.715Z,82.42
2023-06-24T21:10:09.031Z,82.94
2023-06-24T21:15:14.582Z,83.17
2023-06-24T21:20:23.784Z,83.52
2023-06-24T21:25:28.047Z,83.26
2023-06-24T21:30:32.537Z,83.16
2023-06-24T21:39:46.028Z,83.68
2023-06-24T21:50:08.463Z,83.88
2023-06-24T21:55:49.510Z,84.45
2023-06-24T22:00:57.191Z,84.02
2023-06-24T22:06:07.181Z,85.15
2023-06-24T22:11:11.556Z,85.20
2023-06-24T22:16:22.779Z,85.24
2023-06-24T22:21:47.928Z,85.14
2023-06-24T22:26:54.954Z,85.10
2023-06-24T22:32:13.178Z,85.96
2023-06-24T22:37:39.821Z,85.65
2023-06-24T22:42:44.373Z,85.37
2023-06-24T22:47:55.999Z,85.14
2023-06-24T22:53:07.785Z,85.09
2023-06-24T22:58:23.857Z,84.70
2023-06-24T23:03:36.500Z,84.66
2023-06-24T23:08:57.893Z,84.49
2023-06-24T23:14:07.934Z,84.34
2023-06-24T23:19:11.167Z,85.54
2023-06-24T23:24:32.524Z,84.59
2023-06-24T23:29:41.132Z,84.40
2023-06-24T23:35:16.291Z,84.29
2023-06-24T23:40:20.595Z,83.92
2023-06-24T23:45:48.206Z,83.48
2023-06-24T23:50:54.643Z,83.41
2023-06-24T23:55:59.722Z,83.49
